Time,TemperatureF,DewpointF,PressureIn,WindDirection,WindDirectionDegrees,WindSpeedMPH,WindSpeedGustMPH,Humidity,HourlyPrecipIn,Conditions,Clouds,dailyrainin,SoftwareType,DateUTC
2013-11-18 00:00:00,52.2,52.2,29.50,ESE,112,0.0,7.0,100,0.00,RA,OVC,0.00,WeatherDisplay:10.37,2013-11-18 05:00:00,
2013-11-18 00:04:00,52.4,52.4,29.49,ESE,103,0.0,7.0,100,0.00,RA,OVC,0.00,WeatherDisplay:10.37,2013-11-18 05:04:00,
2013-11-18 00:09:00,52.5,52.5,29.49,ESE,119,0.0,2.0,100,0.01,RA,OVC,0.01,WeatherDisplay:10.37,2013-11-18 05:09:00,
2013-11-18 00:14:00,52.5,52.5,29.49,SE,139,1.0,3.0,100,0.00,RA,OVC,0.01,WeatherDisplay:10.37,2013-11-18 05:14:00,
2013-11-18 00:19:00,52.5,52.5,29.48,SSE,164,0.0,5.0,100,0.00,OVC,OVC,0.01,WeatherDisplay:10.37,2013-11-18 05:19:00,
2013-11-18 00:24:00,52.5,52.5,29.48,ESE,118,0.0,3.0,100,0.00,OVC,OVC,0.01,WeatherDisplay:10.37,2013-11-18 05:24:00,
2013-11-18 00:29:00,52.6,52.6,29.48,ESE,102,1.0,6.0,100,0.00,OVC,OVC,0.01,WeatherDisplay:10.37,2013-11-18 05:29:00,
2013-11-18 00:34:00,52.6,52.6,29.47,ESE,103,1.0,3.0,100,0.00,OVC,OVC,0.01,WeatherDisplay:10.37,2013-11-18 05:34:00,
2013-11-18 00:40:00,52.5,52.5,29.46,East,90,1.0,7.0,100,0.01,RA,OVC,0.02,WeatherDisplay:10.37,2013-11-18 05:40:00,
2013-11-18 00:44:00,52.5,52.5,29.45,East,100,0.0,3.0,100,0.00,RA,OVC,0.02,WeatherDisplay:10.37,2013-11-18 05:44:00,
2013-11-18 00:49:00,52.4,52.4,29.44,East,100,0.0,1.0,100,0.00,OVC,OVC,0.02,WeatherDisplay:10.37,2013-11-18 05:49:00,
2013-11-18 00:54:00,52.4,52.4,29.43,ESE,113,0.0,5.0,100,0.01,RA,OVC,0.02,WeatherDisplay:10.37,2013-11-18 05:54:00,
2013-11-18 00:59:00,52.3,52.3,29.42,East,101,0.0,5.0,100,0.00,RA,OVC,0.02,WeatherDisplay:10.37,2013-11-18 05:59:00,
2013-11-18 01:04:00,52.2,52.2,29.42,East,95,0.0,4.0,100,0.00,OVC,OVC,0.02,WeatherDisplay:10.37,2013-11-18 06:04:00,
2013-11-18 01:09:00,52.1,52.1,29.41,ESE,120,0.0,4.0,100,0.00,OVC,OVC,0.02,WeatherDisplay:10.37,2013-11-18 06:09:00,
2013-11-18 01:14:00,52.1,52.1,29.41,SE,134,1.0,6.0,100,0.00,OVC,OVC,0.02,WeatherDisplay:10.37,2013-11-18 06:14:00,
2013-11-18 01:20:00,52.0,52.0,29.40,ESE,119,0.0,4.0,100,0.00,OVC,OVC,0.02,WeatherDisplay:10.37,2013-11-18 06:20:00,
2013-11-18 01:24:00,52.0,52.0,29.39,ESE,115,0.0,5.0,100,0.00,OVC,OVC,0.02,WeatherDisplay:10.37,2013-11-18 06:24:00,
2013-11-18 01:29:00,51.9,51.9,29.38,ESE,118,1.0,3.0,100,0.01,RA,OVC,0.03,WeatherDisplay:10.37,2013-11-18 06:29:00,
2013-11-18 01:34:00,51.9,51.9,29.37,ESE,120,0.0,3.0,100,0.00,RA,OVC,0.03,WeatherDisplay:10.37,2013-11-18 06:34:00,
2013-11-18 01:39:00,51.9,51.9,29.38,ESE,123,0.0,8.0,100,0.00,OVC,OVC,0.03,WeatherDisplay:10.37,2013-11-18 06:39:00,
2013-11-18 01:44:00,51.9,51.9,29.36,ESE,120,0.0,5.0,100,0.00,OVC,OVC,0.03,WeatherDisplay:10.37,2013-11-18 06:44:00,
2013-11-18 01:49:00,51.9,51.9,29.36,SE,129,1.0,3.0,100,0.00,OVC,OVC,0.03,WeatherDisplay:10.37,2013-11-18 06:49:00,
2013-11-18 01:54:00,51.9,51.9,29.35,SE,142,0.0,6.0,100,0.01,RA,OVC,0.04,WeatherDisplay:10.37,2013-11-18 06:54:00,
2013-11-18 01:59:00,52.0,52.0,29.35,SSE,156,1.0,5.0,100,0.02,RA,OVC,0.05,WeatherDisplay:10.37,2013-11-18 06:59:00,
2013-11-18 02:04:00,52.1,52.1,29.34,SE,132,1.0,4.0,100,0.01,RA,OVC,0.06,WeatherDisplay:10.37,2013-11-18 07:04:00,
2013-11-18 02:09:00,52.3,52.3,29.34,SSE,164,0.0,4.0,100,0.02,RA,OVC,0.08,WeatherDisplay:10.37,2013-11-18 07:09:00,
2013-11-18 02:14:00,52.4,52.4,29.33,South,184,0.0,2.0,100,0.01,RA,OVC,0.09,WeatherDisplay:10.37,2013-11-18 07:14:00,
2013-11-18 02:19:00,52.4,52.4,29.33,SSE,161,0.0,1.0,100,0.00,RA,OVC,0.09,WeatherDisplay:10.37,2013-11-18 07:19:00,
2013-11-18 02:24:00,52.5,52.5,29.33,SSE,149,0.0,7.0,100,0.01,RA,OVC,0.09,WeatherDisplay:10.37,2013-11-18 07:24:00,
2013-11-18 02:29:00,52.7,52.7,29.32,SSE,149,0.0,4.0,100,0.00,RA,OVC,0.09,WeatherDisplay:10.37,2013-11-18 07:29:00,
2013-11-18 02:34:00,52.7,52.7,29.32,SSE,155,1.0,6.0,100,0.00,OVC,OVC,0.09,WeatherDisplay:10.37,2013-11-18 07:34:00,
2013-11-18 02:39:00,52.9,52.9,29.31,SSE,166,2.0,7.0,100,0.01,RA,OVC,0.10,WeatherDisplay:10.37,2013-11-18 07:39:00,
2013-11-18 02:44:00,53.0,53.0,29.31,SSE,151,0.0,4.0,100,0.00,RA,OVC,0.10,WeatherDisplay:10.37,2013-11-18 07:44:00,
2013-11-18 02:49:00,53.1,53.1,29.30,SSE,163,0.0,2.0,100,0.02,RA,OVC,0.12,WeatherDisplay:10.37,2013-11-18 07:49:00,
2013-11-18 02:54:00,53.1,53.1,29.30,South,174,0.0,2.0,100,0.01,RA,OVC,0.13,WeatherDisplay:10.37,2013-11-18 07:54:00,
2013-11-18 02:59:00,53.2,53.2,29.29,SE,126,0.0,1.0,100,0.00,RA,OVC,0.13,WeatherDisplay:10.37,2013-11-18 07:59:00,
2013-11-18 03:04:00,53.2,53.2,29.28,SE,130,1.0,10.0,100,0.01,RA,OVC,0.13,WeatherDisplay:10.37,2013-11-18 08:04:00,
2013-11-18 03:09:00,53.3,53.3,29.28,SSE,151,1.0,4.0,100,0.01,RA,OVC,0.14,WeatherDisplay:10.37,2013-11-18 08:09:00,
2013-11-18 03:14:00,53.4,53.4,29.28,SSE,166,1.0,4.0,100,0.00,RA,OVC,0.14,WeatherDisplay:10.37,2013-11-18 08:14:00,
2013-11-18 03:19:00,53.5,53.5,29.28,SSE,163,2.0,5.0,100,0.01,RA,OVC,0.15,WeatherDisplay:10.37,2013-11-18 08:19:00,
2013-11-18 03:24:00,53.5,53.5,29.27,SSE,165,0.0,2.0,100,0.01,RA,OVC,0.16,WeatherDisplay:10.37,2013-11-18 08:24:00,
2013-11-18 03:29:00,53.5,53.5,29.26,South,169,1.0,7.0,100,0.03,RA,OVC,0.19,WeatherDisplay:10.37,2013-11-18 08:29:00,
2013-11-18 03:34:00,53.6,53.6,29.26,SSW,193,3.0,8.0,100,0.02,RA,OVC,0.21,WeatherDisplay:10.37,2013-11-18 08:34:00,
2013-11-18 03:39:00,53.7,53.7,29.30,SW,214,5.0,13.0,100,0.08,RA,OVC,0.30,WeatherDisplay:10.37,2013-11-18 08:39:00,
2013-11-18 03:44:00,53.8,53.8,29.33,WSW,246,10.0,24.0,100,0.06,RA,OVC,0.35,WeatherDisplay:10.37,2013-11-18 08:44:00,
2013-11-18 03:49:00,53.3,53.3,29.33,WSW,245,5.0,16.0,100,0.01,RA,OVC,0.36,WeatherDisplay:10.37,2013-11-18 08:49:00,
2013-11-18 03:54:00,52.7,52.7,29.32,WSW,240,6.0,16.0,100,0.01,RA,OVC,0.37,WeatherDisplay:10.37,2013-11-18 08:54:00,
2013-11-18 04:00:00,52.2,52.2,29.32,WSW,237,3.0,12.0,100,0.01,RA,OVC,0.38,WeatherDisplay:10.37,2013-11-18 09:00:00,
2013-11-18 04:05:00,51.8,51.8,29.32,SW,231,1.0,13.0,100,0.01,RA,OVC,0.39,WeatherDisplay:10.37,2013-11-18 09:05:00,
2013-11-18 04:09:00,51.6,51.6,29.31,SW,227,1.0,10.0,100,0.01,RA,OVC,0.39,WeatherDisplay:10.37,2013-11-18 09:09:00,
2013-11-18 04:14:00,51.4,51.4,29.31,SW,225,1.0,9.0,100,0.01,RA,OVC,0.40,WeatherDisplay:10.37,2013-11-18 09:14:00,
2013-11-18 04:19:00,51.3,51.3,29.30,SW,226,1.0,12.0,100,0.01,RA,OVC,0.41,WeatherDisplay:10.37,2013-11-18 09:19:00,
2013-11-18 04:24:00,51.1,51.1,29.30,SW,216,1.0,7.0,100,0.00,RA,OVC,0.41,WeatherDisplay:10.37,2013-11-18 09:24:00,
2013-11-18 04:29:00,51.0,51.0,29.28,South,183,1.0,4.0,100,0.01,RA,OVC,0.42,WeatherDisplay:10.37,2013-11-18 09:29:00,
2013-11-18 04:34:00,50.9,50.9,29.28,South,172,1.0,6.0,100,0.01,RA,OVC,0.43,WeatherDisplay:10.37,2013-11-18 09:34:00,
2013-11-18 04:39:00,50.7,50.7,29.28,SSW,192,1.0,5.0,100,0.00,RA,OVC,0.43,WeatherDisplay:10.37,2013-11-18 09:39:00,
2013-11-18 04:44:00,50.6,50.6,29.28,SW,221,0.0,5.0,100,0.01,RA,OVC,0.43,WeatherDisplay:10.37,2013-11-18 09:44:00,
2013-11-18 04:49:00,50.4,50.4,29.28,SW,214,2.0,8.0,100,0.01,RA,OVC,0.44,WeatherDisplay:10.37,2013-11-18 09:49:00,
2013-11-18 04:54:00,50.3,50.3,29.28,SW,214,2.0,4.0,100,0.00,RA,OVC,0.44,WeatherDisplay:10.37,2013-11-18 09:54:00,
2013-11-18 04:59:00,50.1,50.1,29.27,SSW,208,2.0,5.0,100,0.01,RA,OVC,0.45,WeatherDisplay:10.37,2013-11-18 09:59:00,
2013-11-18 05:04:00,50.0,50.0,29.28,SSW,208,2.0,8.0,100,0.00,RA,OVC,0.45,WeatherDisplay:10.37,2013-11-18 10:04:00,
2013-11-18 05:09:00,49.8,49.8,29.28,SSW,195,1.0,7.0,100,0.00,OVC,OVC,0.45,WeatherDisplay:10.37,2013-11-18 10:09:00,
2013-11-18 05:14:00,49.7,49.7,29.28,SSW,201,0.0,6.0,100,0.00,OVC,OVC,0.45,WeatherDisplay:10.37,2013-11-18 10:14:00,
2013-11-18 05:19:00,49.7,49.7,29.27,SW,220,1.0,4.0,100,0.00,OVC,OVC,0.45,WeatherDisplay:10.37,2013-11-18 10:19:00,
2013-11-18 05:24:00,49.6,49.6,29.27,SSW,193,2.0,7.0,100,0.00,OVC,OVC,0.45,WeatherDisplay:10.37,2013-11-18 10:24:00,
2013-11-18 05:29:00,49.5,49.5,29.27,SSW,192,1.0,7.0,100,0.00,OVC,OVC,0.45,WeatherDisplay:10.37,2013-11-18 10:29:00,
2013-11-18 05:34:00,49.4,49.4,29.26,SSW,198,5.0,10.0,100,0.00,OVC,OVC,0.45,WeatherDisplay:10.37,2013-11-18 10:34:00,
2013-11-18 05:39:00,49.4,49.4,29.26,SSW,192,1.0,7.0,100,0.00,OVC,OVC,0.45,WeatherDisplay:10.37,2013-11-18 10:39:00,
2013-11-18 05:44:00,49.3,49.3,29.26,SSW,208,2.0,12.0,100,0.00,OVC,OVC,0.45,WeatherDisplay:10.37,2013-11-18 10:44:00,
2013-11-18 05:49:00,49.3,49.3,29.25,SSW,210,2.0,9.0,100,0.00,OVC,OVC,0.45,WeatherDisplay:10.37,2013-11-18 10:49:00,
2013-11-18 05:54:00,49.2,49.2,29.25,SSW,211,2.0,15.0,100,0.00,OVC,OVC,0.45,WeatherDisplay:10.37,2013-11-18 10:54:00,
2013-11-18 05:59:00,49.1,49.1,29.25,SSW,210,5.0,12.0,100,0.00,OVC,OVC,0.45,WeatherDisplay:10.37,2013-11-18 10:59:00,
2013-11-18 06:04:00,49.0,49.0,29.25,SSW,205,2.0,12.0,100,0.00,OVC,OVC,0.45,WeatherDisplay:10.37,2013-11-18 11:04:00,
2013-11-18 06:09:00,49.0,49.0,29.25,SSW,211,7.0,16.0,100,0.00,OVC,OVC,0.45,WeatherDisplay:10.37,2013-11-18 11:09:00,
2013-11-18 06:14:00,48.9,48.9,29.24,SW,226,3.0,14.0,100,0.00,OVC,OVC,0.45,WeatherDisplay:10.37,2013-11-18 11:14:00,
2013-11-18 06:19:00,48.8,48.8,29.24,SSW,212,3.0,12.0,100,0.00,OVC,OVC,0.45,WeatherDisplay:10.37,2013-11-18 11:19:00,
2013-11-18 06:24:00,48.7,48.7,29.25,SSW,193,6.0,15.0,100,0.00,OVC,OVC,0.45,WeatherDisplay:10.37,2013-11-18 11:24:00,
2013-11-18 06:29:00,48.5,48.5,29.25,SSW,199,3.0,12.0,100,0.00,OVC,OVC,0.45,WeatherDisplay:10.37,2013-11-18 11:29:00,
2013-11-18 06:34:00,48.4,47.3,29.25,SW,222,6.0,21.0,96,0.00,OVC,OVC,0.45,WeatherDisplay:10.37,2013-11-18 11:34:00,
2013-11-18 06:40:00,48.4,47.3,29.25,SW,224,2.0,20.0,96,0.00,OVC,OVC,0.45,WeatherDisplay:10.37,2013-11-18 11:40:00,
2013-11-18 06:49:00,48.4,46.7,29.27,South,185,5.0,14.0,94,0.00,OVC,OVC,0.45,WeatherDisplay:10.37,2013-11-18 11:49:00,
2013-11-18 06:54:00,48.4,46.5,29.27,SSW,204,7.0,21.0,93,0.00,OVC,OVC,0.45,WeatherDisplay:10.37,2013-11-18 11:54:00,
2013-11-18 06:59:00,48.5,46.0,29.28,SSW,203,8.0,21.0,91,0.00,OVC,OVC,0.45,WeatherDisplay:10.37,2013-11-18 11:59:00,
2013-11-18 07:04:00,48.6,46.1,29.28,SSW,207,5.0,20.0,91,0.00,OVC,OVC,0.45,WeatherDisplay:10.37,2013-11-18 12:04:00,
2013-11-18 07:09:00,48.6,45.8,29.28,SSW,209,2.0,15.0,90,0.00,OVC,OVC,0.45,WeatherDisplay:10.37,2013-11-18 12:09:00,
2013-11-18 07:14:00,48.5,45.4,29.28,SSW,204,3.0,9.0,89,0.00,OVC,OVC,0.45,WeatherDisplay:10.37,2013-11-18 12:14:00,
2013-11-18 07:19:00,48.5,45.1,29.29,SSW,197,8.0,25.0,88,0.00,OVC,OVC,0.45,WeatherDisplay:10.37,2013-11-18 12:19:00,
2013-11-18 07:24:00,48.5,44.8,29.29,SSW,207,8.0,20.0,87,0.00,OVC,OVC,0.45,WeatherDisplay:10.37,2013-11-18 12:24:00,
2013-11-18 07:30:00,48.5,44.8,29.29,SW,223,6.0,21.0,87,0.00,OVC,OVC,0.45,WeatherDisplay:10.37,2013-11-18 12:30:00,
2013-11-18 07:39:00,48.4,44.4,29.29,SW,227,8.0,17.0,86,0.00,OVC,OVC,0.45,WeatherDisplay:10.37,2013-11-18 12:39:00,
2013-11-18 07:44:00,48.4,44.4,29.30,SW,216,6.0,15.0,86,0.00,OVC,OVC,0.45,WeatherDisplay:10.37,2013-11-18 12:44:00,
2013-11-18 07:49:00,48.4,44.4,29.30,WSW,248,7.0,16.0,86,0.00,OVC,OVC,0.45,WeatherDisplay:10.37,2013-11-18 12:49:00,
2013-11-18 07:54:00,48.4,44.1,29.30,SW,224,7.0,21.0,85,0.00,OVC,OVC,0.45,WeatherDisplay:10.37,2013-11-18 12:54:00,
2013-11-18 07:59:00,48.4,44.1,29.30,SSW,212,3.0,13.0,85,0.00,OVC,OVC,0.45,WeatherDisplay:10.37,2013-11-18 12:59:00,
2013-11-18 08:04:00,48.3,44.0,29.30,SW,229,2.0,18.0,85,0.00,OVC,OVC,0.45,WeatherDisplay:10.37,2013-11-18 13:04:00,
2013-11-18 08:09:00,48.3,43.7,29.30,WSW,237,9.0,18.0,84,0.00,OVC,OVC,0.45,WeatherDisplay:10.37,2013-11-18 13:09:00,
2013-11-18 08:14:00,48.3,44.0,29.30,SW,230,6.0,20.0,85,0.00,OVC,OVC,0.45,WeatherDisplay:10.37,2013-11-18 13:14:00,
2013-11-18 08:19:00,48.3,43.7,29.30,SSW,210,5.0,15.0,84,0.00,OVC,OVC,0.45,WeatherDisplay:10.37,2013-11-18 13:19:00,
2013-11-18 08:24:00,48.2,43.3,29.30,SW,227,10.0,22.0,83,0.00,OVC,OVC,0.45,WeatherDisplay:10.37,2013-11-18 13:24:00,
2013-11-18 08:29:00,48.3,43.7,29.30,SW,227,5.0,13.0,84,0.00,OVC,OVC,0.45,WeatherDisplay:10.37,2013-11-18 13:29:00,
2013-11-18 08:34:00,48.2,43.3,29.30,SSW,212,6.0,13.0,83,0.00,OVC,OVC,0.45,WeatherDisplay:10.37,2013-11-18 13:34:00,
2013-11-18 08:39:00,48.2,43.3,29.30,SW,220,3.0,13.0,83,0.00,OVC,OVC,0.45,WeatherDisplay:10.37,2013-11-18 13:39:00,
2013-11-18 08:44:00,48.2,43.3,29.30,SW,227,6.0,16.0,83,0.00,OVC,OVC,0.45,WeatherDisplay:10.37,2013-11-18 13:44:00,
2013-11-18 08:49:00,48.2,43.3,29.30,SW,233,6.0,16.0,83,0.00,OVC,OVC,0.45,WeatherDisplay:10.37,2013-11-18 13:49:00,
2013-11-18 08:54:00,48.2,43.3,29.30,SW,232,6.0,18.0,83,0.00,OVC,OVC,0.45,WeatherDisplay:10.37,2013-11-18 13:54:00,
2013-11-18 08:59:00,48.2,43.3,29.30,SW,228,6.0,18.0,83,0.00,OVC,OVC,0.45,WeatherDisplay:10.37,2013-11-18 13:59:00,
2013-11-18 09:04:00,48.2,43.3,29.30,SW,224,8.0,17.0,83,0.00,OVC,OVC,0.45,WeatherDisplay:10.37,2013-11-18 14:04:00,
2013-11-18 09:09:00,48.3,43.3,29.30,SW,228,5.0,14.0,83,0.00,OVC,OVC,0.45,WeatherDisplay:10.37,2013-11-18 14:09:00,
2013-11-18 09:14:00,48.2,43.3,29.31,SW,221,8.0,17.0,83,0.00,OVC,OVC,0.45,WeatherDisplay:10.37,2013-11-18 14:14:00,
2013-11-18 09:19:00,48.2,43.3,29.31,SW,231,8.0,23.0,83,0.00,OVC,OVC,0.45,WeatherDisplay:10.37,2013-11-18 14:19:00,
2013-11-18 09:24:00,48.2,43.3,29.31,SW,225,8.0,17.0,83,0.00,OVC,OVC,0.45,WeatherDisplay:10.37,2013-11-18 14:24:00,
2013-11-18 09:29:00,48.2,43.3,29.31,WSW,238,6.0,20.0,83,0.00,OVC,OVC,0.45,WeatherDisplay:10.37,2013-11-18 14:29:00,
2013-11-18 09:34:00,48.2,43.3,29.31,WSW,253,7.0,15.0,83,0.00,OVC,OVC,0.45,WeatherDisplay:10.37,2013-11-18 14:34:00,
2013-11-18 09:39:00,48.2,43.3,29.31,SW,235,7.0,20.0,83,0.00,OVC,OVC,0.45,WeatherDisplay:10.37,2013-11-18 14:39:00,
2013-11-18 09:44:00,48.2,43.3,29.31,SW,226,6.0,15.0,83,0.00,OVC,OVC,0.45,WeatherDisplay:10.37,2013-11-18 14:44:00,
2013-11-18 09:49:00,48.3,43.4,29.31,SW,221,7.0,15.0,83,0.00,OVC,OVC,0.45,WeatherDisplay:10.37,2013-11-18 14:49:00,
2013-11-18 09:54:00,48.4,43.1,29.31,SSW,209,6.0,14.0,82,0.00,OVC,OVC,0.45,WeatherDisplay:10.37,2013-11-18 14:54:00,
2013-11-18 09:59:00,48.4,43.2,29.32,SW,220,5.0,17.0,82,0.00,OVC,OVC,0.45,WeatherDisplay:10.37,2013-11-18 14:59:00,
2013-11-18 10:04:00,48.5,43.2,29.32,SW,230,5.0,19.0,82,0.00,OVC,OVC,0.45,WeatherDisplay:10.37,2013-11-18 15:04:00,
2013-11-18 10:09:00,48.5,43.3,29.32,SSW,213,2.0,20.0,82,0.00,OVC,OVC,0.45,WeatherDisplay:10.37,2013-11-18 15:09:00,
2013-11-18 10:14:00,48.6,43.3,29.32,SW,218,2.0,14.0,82,0.00,OVC,OVC,0.45,WeatherDisplay:10.37,2013-11-18 15:14:00,
2013-11-18 10:19:00,48.6,43.0,29.31,SW,228,6.0,21.0,81,0.00,OVC,OVC,0.45,WeatherDisplay:10.37,2013-11-18 15:19:00,
2013-11-18 10:24:00,48.7,43.1,29.31,SW,229,5.0,18.0,81,0.00,OVC,OVC,0.45,WeatherDisplay:10.37,2013-11-18 15:24:00,
2013-11-18 10:29:00,48.7,43.1,29.31,SW,225,6.0,17.0,81,0.00,OVC,OVC,0.45,WeatherDisplay:10.37,2013-11-18 15:29:00,
2013-11-18 10:34:00,48.7,43.2,29.31,SW,216,5.0,13.0,81,0.00,OVC,OVC,0.45,WeatherDisplay:10.37,2013-11-18 15:34:00,
2013-11-18 10:39:00,48.8,42.9,29.31,SSW,209,6.0,15.0,80,0.00,OVC,OVC,0.45,WeatherDisplay:10.37,2013-11-18 15:39:00,
2013-11-18 10:44:00,48.8,42.9,29.31,SSW,208,5.0,17.0,80,0.00,OVC,OVC,0.45,WeatherDisplay:10.37,2013-11-18 15:44:00,
2013-11-18 10:49:00,48.9,42.7,29.31,WSW,248,3.0,15.0,79,0.00,OVC,OVC,0.45,WeatherDisplay:10.37,2013-11-18 15:49:00,
2013-11-18 10:54:00,49.2,42.9,29.31,WSW,243,7.0,13.0,79,0.00,OVC,OVC,0.45,WeatherDisplay:10.37,2013-11-18 15:54:00,
2013-11-18 10:59:00,49.6,43.0,29.31,SW,232,5.0,24.0,78,0.00,OVC,OVC,0.45,WeatherDisplay:10.37,2013-11-18 15:59:00,
2013-11-18 11:04:00,49.6,42.7,29.31,SW,229,8.0,20.0,77,0.00,OVC,OVC,0.45,WeatherDisplay:10.37,2013-11-18 16:04:00,
2013-11-18 11:09:00,49.3,42.1,29.32,SW,219,13.0,30.0,76,0.01,RA,OVC,0.46,WeatherDisplay:10.37,2013-11-18 16:09:00,
2013-11-18 11:14:00,49.2,42.0,29.31,SSW,208,8.0,18.0,76,0.00,RA,OVC,0.46,WeatherDisplay:10.37,2013-11-18 16:14:00,
2013-11-18 11:19:00,49.0,42.1,29.31,SW,218,10.0,23.0,77,0.00,BKN,OVC,0.46,WeatherDisplay:10.37,2013-11-18 16:19:00,
2013-11-18 11:24:00,49.1,41.8,29.31,WSW,243,8.0,23.0,76,0.00,BKN,OVC,0.46,WeatherDisplay:10.37,2013-11-18 16:24:00,
2013-11-18 11:29:00,49.7,42.5,29.32,SW,232,8.0,15.0,76,0.00,BKN,OVC,0.46,WeatherDisplay:10.37,2013-11-18 16:29:00,
2013-11-18 11:34:00,50.4,43.1,29.32,WSW,249,7.0,17.0,76,0.00,BKN,OVC,0.46,WeatherDisplay:10.37,2013-11-18 16:34:00,
2013-11-18 11:39:00,50.9,42.9,29.32,SW,229,5.0,21.0,74,0.00,BKN,OVC,0.46,WeatherDisplay:10.37,2013-11-18 16:39:00,
2013-11-18 11:49:00,49.5,41.6,29.32,SW,230,7.0,20.0,74,0.00,BKN,OVC,0.46,WeatherDisplay:10.37,2013-11-18 16:49:00,
2013-11-18 11:54:00,49.3,41.4,29.33,SW,221,7.0,20.0,74,0.00,BKN,OVC,0.46,WeatherDisplay:10.37,2013-11-18 16:54:00,
2013-11-18 11:59:00,49.0,41.1,29.33,SW,234,12.0,36.0,74,0.00,BKN,OVC,0.46,WeatherDisplay:10.37,2013-11-18 16:59:00,
2013-11-18 12:04:00,48.0,41.1,29.34,WSW,251,7.0,24.0,77,0.00,BKN,OVC,0.46,WeatherDisplay:10.37,2013-11-18 17:04:00,
2013-11-18 12:09:00,47.6,41.4,29.33,West,262,2.0,13.0,79,0.00,BKN,OVC,0.46,WeatherDisplay:10.37,2013-11-18 17:09:00,
2013-11-18 12:14:00,47.4,41.9,29.34,WSW,254,3.0,15.0,81,0.00,BKN,OVC,0.46,WeatherDisplay:10.37,2013-11-18 17:14:00,
2013-11-18 12:19:00,46.7,42.4,29.34,WSW,256,6.0,21.0,85,0.01,RA,OVC,0.47,WeatherDisplay:10.37,2013-11-18 17:19:00,
2013-11-18 12:24:00,45.8,42.2,29.35,WSW,255,6.0,17.0,87,0.01,RA,OVC,0.47,WeatherDisplay:10.37,2013-11-18 17:24:00,
2013-11-18 12:29:00,44.6,41.9,29.35,WSW,247,6.0,17.0,90,0.01,RA,OVC,0.48,WeatherDisplay:10.37,2013-11-18 17:29:00,
2013-11-18 12:34:00,44.2,41.5,29.35,WSW,244,3.0,16.0,90,0.00,RA,OVC,0.48,WeatherDisplay:10.37,2013-11-18 17:34:00,
2013-11-18 12:39:00,44.2,42.0,29.35,WSW,240,5.0,13.0,92,0.00,BKN,OVC,0.48,WeatherDisplay:10.37,2013-11-18 17:39:00,
2013-11-18 12:45:00,44.7,42.8,29.35,SW,234,2.0,12.0,93,0.00,BKN,OVC,0.48,WeatherDisplay:10.37,2013-11-18 17:45:00,
2013-11-18 12:54:00,45.1,42.9,29.35,SW,222,3.0,14.0,92,0.00,BKN,OVC,0.48,WeatherDisplay:10.37,2013-11-18 17:54:00,
2013-11-18 12:59:00,45.0,41.7,29.36,SW,226,6.0,16.0,88,0.00,BKN,OVC,0.48,WeatherDisplay:10.37,2013-11-18 17:59:00,
2013-11-18 13:04:00,44.7,41.4,29.36,SW,236,5.0,13.0,88,0.00,BKN,OVC,0.48,WeatherDisplay:10.37,2013-11-18 18:04:00,
2013-11-18 13:09:00,44.6,40.7,29.36,WSW,255,7.0,14.0,86,0.00,BKN,OVC,0.48,WeatherDisplay:10.37,2013-11-18 18:09:00,
2013-11-18 13:14:00,44.8,40.3,29.35,WSW,253,5.0,12.0,84,0.00,BKN,OVC,0.48,WeatherDisplay:10.37,2013-11-18 18:14:00,
2013-11-18 13:19:00,44.9,39.7,29.35,WSW,249,3.0,12.0,82,0.00,BKN,OVC,0.48,WeatherDisplay:10.37,2013-11-18 18:19:00,
2013-11-18 13:24:00,45.0,38.9,29.35,WSW,240,6.0,17.0,79,0.00,BKN,OVC,0.48,WeatherDisplay:10.37,2013-11-18 18:24:00,
2013-11-18 13:29:00,45.3,38.5,29.35,SW,224,9.0,15.0,77,0.00,BKN,OVC,0.48,WeatherDisplay:10.37,2013-11-18 18:29:00,
2013-11-18 13:34:00,45.7,38.6,29.35,WSW,251,8.0,21.0,76,0.00,BKN,OVC,0.48,WeatherDisplay:10.37,2013-11-18 18:34:00,
2013-11-18 13:39:00,46.1,38.3,29.35,SW,235,6.0,18.0,74,0.00,BKN,OVC,0.48,WeatherDisplay:10.37,2013-11-18 18:39:00,
2013-11-18 13:44:00,46.3,37.8,29.35,SW,221,6.0,16.0,72,0.00,BKN,OVC,0.48,WeatherDisplay:10.37,2013-11-18 18:44:00,
2013-11-18 13:49:00,46.6,38.0,29.36,SW,234,6.0,16.0,72,0.00,BKN,OVC,0.48,WeatherDisplay:10.37,2013-11-18 18:49:00,
2013-11-18 13:54:00,46.8,38.2,29.36,SW,232,3.0,10.0,72,0.00,BKN,OVC,0.48,WeatherDisplay:10.37,2013-11-18 18:54:00,
2013-11-18 13:59:00,47.0,37.7,29.36,SW,234,7.0,15.0,70,0.00,BKN,OVC,0.48,WeatherDisplay:10.37,2013-11-18 18:59:00,
2013-11-18 14:04:00,47.0,37.4,29.36,SW,225,6.0,18.0,69,0.00,BKN,OVC,0.48,WeatherDisplay:10.37,2013-11-18 19:04:00,
2013-11-18 14:09:00,47.0,37.0,29.36,WSW,237,7.0,24.0,68,0.00,BKN,OVC,0.48,WeatherDisplay:10.37,2013-11-18 19:09:00,
2013-11-18 14:14:00,47.0,37.3,29.37,WSW,256,6.0,12.0,69,0.00,BKN,OVC,0.48,WeatherDisplay:10.37,2013-11-18 19:14:00,
2013-11-18 14:19:00,47.0,37.0,29.37,WSW,241,6.0,20.0,68,0.00,BKN,OVC,0.48,WeatherDisplay:10.37,2013-11-18 19:19:00,
2013-11-18 14:24:00,47.0,37.0,29.37,WSW,241,8.0,17.0,68,0.00,BKN,OVC,0.48,WeatherDisplay:10.37,2013-11-18 19:24:00,
2013-11-18 14:29:00,47.0,37.7,29.37,SW,234,3.0,15.0,70,0.00,BKN,OVC,0.48,WeatherDisplay:10.37,2013-11-18 19:29:00,
2013-11-18 14:34:00,46.8,37.9,29.37,SW,226,5.0,15.0,71,0.00,BKN,OVC,0.48,WeatherDisplay:10.37,2013-11-18 19:34:00,
2013-11-18 14:39:00,46.7,38.1,29.37,WSW,239,9.0,20.0,72,0.00,BKN,OVC,0.48,WeatherDisplay:10.37,2013-11-18 19:39:00,
2013-11-18 14:49:00,46.6,38.4,29.38,SW,214,2.0,15.0,73,0.00,BKN,OVC,0.48,WeatherDisplay:10.37,2013-11-18 19:49:00,
2013-11-18 14:54:00,46.5,38.0,29.38,SW,217,8.0,21.0,72,0.00,BKN,OVC,0.48,WeatherDisplay:10.37,2013-11-18 19:54:00,
2013-11-18 14:59:00,46.3,38.1,29.38,WSW,247,3.0,20.0,73,0.00,BKN,OVC,0.48,WeatherDisplay:10.37,2013-11-18 19:59:00,
2013-11-18 15:04:00,46.1,38.2,29.38,WSW,239,6.0,16.0,74,0.00,BKN,OVC,0.48,WeatherDisplay:10.37,2013-11-18 20:04:00,
2013-11-18 15:09:00,46.0,38.1,29.38,SW,218,2.0,16.0,74,0.00,BKN,OVC,0.48,WeatherDisplay:10.37,2013-11-18 20:09:00,
2013-11-18 15:14:00,45.8,38.0,29.38,SW,232,5.0,14.0,74,0.00,BKN,OVC,0.48,WeatherDisplay:10.37,2013-11-18 20:14:00,
2013-11-18 15:19:00,45.7,38.3,29.38,WSW,239,7.0,13.0,75,0.00,BKN,OVC,0.48,WeatherDisplay:10.37,2013-11-18 20:19:00,
2013-11-18 15:24:00,45.6,38.8,29.38,SW,235,5.0,12.0,77,0.00,BKN,OVC,0.48,WeatherDisplay:10.37,2013-11-18 20:24:00,
2013-11-18 15:30:00,45.4,38.9,29.39,SW,231,7.0,14.0,78,0.00,BKN,OVC,0.48,WeatherDisplay:10.37,2013-11-18 20:30:00,
2013-11-18 15:39:00,43.6,39.0,29.39,SW,216,6.0,23.0,84,0.00,RA,OVC,0.50,WeatherDisplay:10.37,2013-11-18 20:39:00,
2013-11-18 15:44:00,42.9,39.0,29.39,SW,215,5.0,12.0,86,0.00,OVC,OVC,0.50,WeatherDisplay:10.37,2013-11-18 20:44:00,
2013-11-18 15:49:00,42.4,38.8,29.39,SSW,211,3.0,10.0,87,0.00,OVC,OVC,0.50,WeatherDisplay:10.37,2013-11-18 20:49:00,
2013-11-18 15:54:00,42.1,38.8,29.39,SW,231,3.0,16.0,88,0.01,RA,OVC,0.51,WeatherDisplay:10.37,2013-11-18 20:54:00,
2013-11-18 15:59:00,41.9,38.9,29.39,WSW,239,6.0,13.0,89,0.00,RA,OVC,0.51,WeatherDisplay:10.37,2013-11-18 20:59:00,
2013-11-18 16:04:00,41.7,38.7,29.40,WSW,239,7.0,20.0,89,0.00,OVC,OVC,0.51,WeatherDisplay:10.37,2013-11-18 21:04:00,
2013-11-18 16:09:00,41.5,38.5,29.40,SW,236,5.0,15.0,89,0.00,OVC,OVC,0.51,WeatherDisplay:10.37,2013-11-18 21:09:00,
2013-11-18 16:14:00,41.5,38.5,29.40,SW,231,7.0,17.0,89,0.00,OVC,OVC,0.51,WeatherDisplay:10.37,2013-11-18 21:14:00,
2013-11-18 16:19:00,41.6,38.6,29.41,WSW,252,3.0,17.0,89,0.00,OVC,OVC,0.51,WeatherDisplay:10.37,2013-11-18 21:19:00,
2013-11-18 16:24:00,41.6,38.6,29.41,West,276,8.0,17.0,89,0.00,OVC,OVC,0.51,WeatherDisplay:10.37,2013-11-18 21:24:00,
2013-11-18 16:29:00,41.7,38.4,29.41,WNW,283,6.0,18.0,88,0.00,OVC,OVC,0.51,WeatherDisplay:10.37,2013-11-18 21:29:00,
2013-11-18 16:34:00,41.7,38.4,29.42,WSW,258,6.0,12.0,88,0.00,OVC,OVC,0.51,WeatherDisplay:10.37,2013-11-18 21:34:00,
2013-11-18 16:39:00,41.6,38.0,29.42,West,279,6.0,14.0,87,0.00,OVC,OVC,0.51,WeatherDisplay:10.37,2013-11-18 21:39:00,
2013-11-18 16:44:00,41.5,38.2,29.42,West,267,7.0,15.0,88,0.00,OVC,OVC,0.51,WeatherDisplay:10.37,2013-11-18 21:44:00,
2013-11-18 16:49:00,41.1,37.8,29.43,SW,232,7.0,16.0,88,0.00,OVC,OVC,0.51,WeatherDisplay:10.37,2013-11-18 21:49:00,
2013-11-18 16:54:00,40.8,37.5,29.43,SW,223,6.0,16.0,88,0.01,RA,OVC,0.52,WeatherDisplay:10.37,2013-11-18 21:54:00,
2013-11-18 16:59:00,40.4,37.4,29.43,SSW,196,7.0,23.0,89,0.00,RA,OVC,0.52,WeatherDisplay:10.37,2013-11-18 21:59:00,
2013-11-18 17:04:00,40.0,37.0,29.43,WSW,241,6.0,16.0,89,0.00,OVC,OVC,0.52,WeatherDisplay:10.37,2013-11-18 22:04:00,
2013-11-18 17:09:00,39.7,37.0,29.43,WSW,240,5.0,12.0,90,0.00,OVC,OVC,0.52,WeatherDisplay:10.37,2013-11-18 22:09:00,
2013-11-18 17:14:00,39.5,36.8,29.43,WSW,247,6.0,10.0,90,0.00,OVC,OVC,0.52,WeatherDisplay:10.37,2013-11-18 22:14:00,
2013-11-18 17:19:00,39.3,36.9,29.43,WSW,244,5.0,14.0,91,0.00,OVC,OVC,0.52,WeatherDisplay:10.37,2013-11-18 22:19:00,
2013-11-18 17:24:00,39.3,36.9,29.44,WSW,240,1.0,12.0,91,0.00,OVC,OVC,0.52,WeatherDisplay:10.37,2013-11-18 22:24:00,
2013-11-18 17:29:00,39.2,37.1,29.43,SW,228,5.0,18.0,92,0.01,RA,OVC,0.53,WeatherDisplay:10.37,2013-11-18 22:29:00,
2013-11-18 17:39:00,39.3,37.2,29.43,WSW,237,5.0,12.0,92,0.00,OVC,OVC,0.53,WeatherDisplay:10.37,2013-11-18 22:39:00,
2013-11-18 17:44:00,39.3,37.2,29.43,WSW,238,3.0,13.0,92,0.00,OVC,OVC,0.53,WeatherDisplay:10.37,2013-11-18 22:44:00,
2013-11-18 17:49:00,39.3,37.2,29.44,SW,227,6.0,13.0,92,0.00,OVC,OVC,0.53,WeatherDisplay:10.37,2013-11-18 22:49:00,
2013-11-18 17:54:00,39.4,37.0,29.43,SW,226,3.0,12.0,91,0.00,OVC,OVC,0.53,WeatherDisplay:10.37,2013-11-18 22:54:00,
2013-11-18 17:59:00,39.4,37.0,29.43,SW,220,3.0,9.0,91,0.00,OVC,OVC,0.53,WeatherDisplay:10.37,2013-11-18 22:59:00,
2013-11-18 18:04:00,39.3,36.9,29.43,WSW,246,5.0,10.0,91,0.00,OVC,OVC,0.53,WeatherDisplay:10.37,2013-11-18 23:04:00,
2013-11-18 18:09:00,39.3,36.6,29.43,SW,234,6.0,14.0,90,0.00,OVC,OVC,0.53,WeatherDisplay:10.37,2013-11-18 23:09:00,
2013-11-18 18:14:00,39.3,36.6,29.44,SW,229,6.0,12.0,90,0.00,OVC,OVC,0.53,WeatherDisplay:10.37,2013-11-18 23:14:00,
2013-11-18 18:19:00,39.3,36.3,29.44,WSW,239,6.0,16.0,89,0.00,OVC,OVC,0.53,WeatherDisplay:10.37,2013-11-18 23:19:00,
2013-11-18 18:24:00,39.3,36.3,29.43,SW,229,6.0,14.0,89,0.00,OVC,OVC,0.53,WeatherDisplay:10.37,2013-11-18 23:24:00,
2013-11-18 18:29:00,39.3,36.0,29.44,SW,217,5.0,20.0,88,0.00,OVC,OVC,0.53,WeatherDisplay:10.37,2013-11-18 23:29:00,
2013-11-18 18:34:00,39.4,35.9,29.44,SW,230,5.0,20.0,87,0.00,OVC,OVC,0.53,WeatherDisplay:10.37,2013-11-18 23:34:00,
2013-11-18 18:39:00,39.4,35.9,29.44,SW,226,5.0,14.0,87,0.00,OVC,OVC,0.53,WeatherDisplay:10.37,2013-11-18 23:39:00,
2013-11-18 18:44:00,39.4,35.6,29.44,SW,236,6.0,14.0,86,0.00,OVC,OVC,0.53,WeatherDisplay:10.37,2013-11-18 23:44:00,
2013-11-18 18:49:00,39.5,35.7,29.44,SW,231,6.0,17.0,86,0.00,OVC,OVC,0.53,WeatherDisplay:10.37,2013-11-18 23:49:00,
2013-11-18 18:54:00,39.6,35.2,29.44,SW,221,2.0,15.0,84,0.00,OVC,OVC,0.53,WeatherDisplay:10.37,2013-11-18 23:54:00,
2013-11-18 18:59:00,39.7,35.3,29.45,WSW,244,1.0,10.0,84,0.00,OVC,OVC,0.53,WeatherDisplay:10.37,2013-11-18 23:59:00,
2013-11-18 19:04:00,39.7,35.3,29.45,WSW,238,2.0,14.0,84,0.00,OVC,OVC,0.53,WeatherDisplay:10.37,2013-11-19 00:04:00,
2013-11-18 19:09:00,39.7,35.0,29.45,SW,229,7.0,12.0,83,0.00,OVC,OVC,0.53,WeatherDisplay:10.37,2013-11-19 00:09:00,
2013-11-18 19:14:00,39.7,34.7,29.45,WSW,245,5.0,13.0,82,0.00,OVC,OVC,0.53,WeatherDisplay:10.37,2013-11-19 00:14:00,
2013-11-18 19:19:00,39.8,34.8,29.45,WSW,252,3.0,12.0,82,0.00,OVC,OVC,0.53,WeatherDisplay:10.37,2013-11-19 00:19:00,
2013-11-18 19:24:00,39.8,34.4,29.45,SW,235,3.0,17.0,81,0.00,OVC,OVC,0.53,WeatherDisplay:10.37,2013-11-19 00:24:00,
2013-11-18 19:29:00,39.8,34.4,29.46,WSW,250,6.0,12.0,81,0.00,OVC,OVC,0.53,WeatherDisplay:10.37,2013-11-19 00:29:00,
2013-11-18 19:34:00,39.7,34.4,29.46,SW,221,6.0,15.0,81,0.00,OVC,OVC,0.53,WeatherDisplay:10.37,2013-11-19 00:34:00,
2013-11-18 19:39:00,39.7,34.4,29.46,SW,229,6.0,12.0,81,0.00,OVC,OVC,0.53,WeatherDisplay:10.37,2013-11-19 00:39:00,
2013-11-18 19:44:00,39.7,34.3,29.47,SW,232,5.0,15.0,81,0.00,BKN,OVC,0.53,WeatherDisplay:10.37,2013-11-19 00:44:00,
2013-11-18 19:49:00,39.7,34.3,29.47,WSW,251,7.0,20.0,81,0.00,BKN,OVC,0.53,WeatherDisplay:10.37,2013-11-19 00:49:00,
2013-11-18 19:54:00,39.7,34.0,29.47,WSW,240,9.0,22.0,80,0.00,BKN,OVC,0.53,WeatherDisplay:10.37,2013-11-19 00:54:00,
2013-11-18 19:59:00,39.7,33.7,29.47,SW,235,5.0,17.0,79,0.00,BKN,OVC,0.53,WeatherDisplay:10.37,2013-11-19 00:59:00,
2013-11-18 20:04:00,39.6,33.6,29.48,WSW,241,6.0,21.0,79,0.00,BKN,OVC,0.53,WeatherDisplay:10.37,2013-11-19 01:04:00,
2013-11-18 20:09:00,39.5,33.2,29.47,WSW,238,6.0,18.0,78,0.00,BKN,OVC,0.53,WeatherDisplay:10.37,2013-11-19 01:09:00,
2013-11-18 20:14:00,39.4,33.1,29.47,SW,220,7.0,17.0,78,0.00,BKN,OVC,0.53,WeatherDisplay:10.37,2013-11-19 01:14:00,
2013-11-18 20:19:00,39.3,33.0,29.47,SW,226,6.0,15.0,78,0.00,BKN,OVC,0.53,WeatherDisplay:10.37,2013-11-19 01:19:00,
2013-11-18 20:24:00,39.2,32.9,29.47,SW,236,6.0,13.0,78,0.00,BKN,OVC,0.53,WeatherDisplay:10.37,2013-11-19 01:24:00,
2013-11-18 20:29:00,39.1,32.8,29.48,SSW,212,3.0,13.0,78,0.00,BKN,OVC,0.53,WeatherDisplay:10.37,2013-11-19 01:29:00,
2013-11-18 20:34:00,39.0,32.7,29.48,SW,228,5.0,20.0,78,0.00,BKN,OVC,0.53,WeatherDisplay:10.37,2013-11-19 01:34:00,
2013-11-18 20:39:00,38.9,32.6,29.47,WSW,239,3.0,12.0,78,0.00,BKN,OVC,0.53,WeatherDisplay:10.37,2013-11-19 01:39:00,
2013-11-18 20:44:00,38.8,32.6,29.47,WSW,258,6.0,20.0,78,0.00,BKN,OVC,0.53,WeatherDisplay:10.37,2013-11-19 01:44:00,
2013-11-18 20:49:00,38.8,32.2,29.48,WSW,251,5.0,18.0,77,0.00,BKN,OVC,0.53,WeatherDisplay:10.37,2013-11-19 01:49:00,
2013-11-18 20:54:00,38.8,32.2,29.48,WSW,258,5.0,17.0,77,0.00,BKN,OVC,0.53,WeatherDisplay:10.37,2013-11-19 01:54:00,
2013-11-18 20:59:00,38.7,32.1,29.48,WSW,251,5.0,14.0,77,0.00,BKN,OVC,0.53,WeatherDisplay:10.37,2013-11-19 01:59:00,
2013-11-18 21:04:00,38.7,32.1,29.48,WSW,250,5.0,14.0,77,0.00,BKN,OVC,0.53,WeatherDisplay:10.37,2013-11-19 02:04:00,
2013-11-18 21:09:00,38.7,32.1,29.48,West,269,5.0,14.0,77,0.00,BKN,OVC,0.53,WeatherDisplay:10.37,2013-11-19 02:09:00,
2013-11-18 21:14:00,38.7,32.1,29.48,SW,235,3.0,16.0,77,0.00,OVC,OVC,0.53,WeatherDisplay:10.37,2013-11-19 02:14:00,
2013-11-18 21:19:00,38.6,31.4,29.48,SW,227,7.0,20.0,75,0.00,OVC,OVC,0.53,WeatherDisplay:10.37,2013-11-19 02:19:00,
2013-11-18 21:24:00,38.5,30.9,29.48,SW,234,6.0,20.0,74,0.00,OVC,OVC,0.53,WeatherDisplay:10.37,2013-11-19 02:24:00,
2013-11-18 21:29:00,38.4,30.9,29.49,WSW,239,5.0,16.0,74,0.00,OVC,OVC,0.53,WeatherDisplay:10.37,2013-11-19 02:29:00,
2013-11-18 21:34:00,38.3,30.1,29.49,West,265,6.0,22.0,72,0.00,OVC,OVC,0.53,WeatherDisplay:10.37,2013-11-19 02:34:00,
2013-11-18 21:39:00,38.3,30.1,29.49,WNW,282,5.0,14.0,72,0.00,OVC,OVC,0.53,WeatherDisplay:10.37,2013-11-19 02:39:00,
2013-11-18 21:44:00,38.1,29.9,29.49,WSW,246,8.0,16.0,72,0.00,OVC,OVC,0.53,WeatherDisplay:10.37,2013-11-19 02:44:00,
2013-11-18 21:49:00,38.0,29.4,29.49,WNW,302,12.0,22.0,71,0.00,OVC,OVC,0.53,WeatherDisplay:10.37,2013-11-19 02:49:00,
2013-11-18 21:54:00,37.9,29.3,29.49,West,271,9.0,20.0,71,0.00,OVC,OVC,0.53,WeatherDisplay:10.37,2013-11-19 02:54:00,
2013-11-18 21:59:00,37.7,29.2,29.49,SW,234,9.0,20.0,71,0.00,OVC,OVC,0.53,WeatherDisplay:10.37,2013-11-19 02:59:00,
2013-11-18 22:04:00,37.6,29.4,29.49,WSW,243,7.0,17.0,72,0.00,OVC,OVC,0.53,WeatherDisplay:10.37,2013-11-19 03:04:00,
2013-11-18 22:09:00,37.4,29.5,29.50,West,268,8.0,20.0,73,0.00,OVC,OVC,0.53,WeatherDisplay:10.37,2013-11-19 03:09:00,
2013-11-18 22:19:00,36.9,30.1,29.50,West,275,10.0,22.0,76,0.00,OVC,OVC,0.53,WeatherDisplay:10.37,2013-11-19 03:19:00,
2013-11-18 22:29:00,35.2,31.4,29.52,WNW,296,8.0,22.0,86,0.00,OVC,OVC,0.53,WeatherDisplay:10.37,2013-11-19 03:29:00,
2013-11-18 22:34:00,33.9,30.2,29.52,WNW,284,8.0,25.0,86,0.00,BKN,OVC,0.53,WeatherDisplay:10.37,2013-11-19 03:34:00,
2013-11-18 22:39:00,33.2,29.5,29.52,WNW,302,7.0,18.0,86,0.00,BKN,OVC,0.53,WeatherDisplay:10.37,2013-11-19 03:39:00,
2013-11-18 22:44:00,32.9,28.9,29.52,NW,315,5.0,13.0,85,0.00,OVC,OVC,0.53,WeatherDisplay:10.37,2013-11-19 03:44:00,
2013-11-18 22:49:00,32.8,28.8,29.52,WNW,292,5.0,9.0,85,0.00,OVC,OVC,0.53,WeatherDisplay:10.37,2013-11-19 03:49:00,
2013-11-18 22:54:00,32.7,28.4,29.53,West,270,7.0,13.0,84,0.00,OVC,OVC,0.53,WeatherDisplay:10.37,2013-11-19 03:54:00,
2013-11-18 22:59:00,32.8,28.2,29.53,West,280,6.0,14.0,83,0.00,OVC,OVC,0.53,WeatherDisplay:10.37,2013-11-19 03:59:00,
2013-11-18 23:04:00,32.9,27.7,29.53,WNW,297,7.0,18.0,81,0.00,OVC,OVC,0.53,WeatherDisplay:10.37,2013-11-19 04:04:00,
2013-11-18 23:09:00,32.9,28.6,29.54,NW,307,13.0,20.0,84,0.00,OVC,OVC,0.53,WeatherDisplay:10.37,2013-11-19 04:09:00,
2013-11-18 23:14:00,32.5,28.5,29.54,WNW,303,6.0,16.0,85,0.00,BKN,OVC,0.53,WeatherDisplay:10.37,2013-11-19 04:14:00,
2013-11-18 23:19:00,32.0,28.0,29.55,NW,312,9.0,17.0,85,0.00,BKN,OVC,0.53,WeatherDisplay:10.37,2013-11-19 04:19:00,
2013-11-18 23:24:00,31.6,27.3,29.55,WNW,303,8.0,14.0,84,0.00,BKN,OVC,0.53,WeatherDisplay:10.37,2013-11-19 04:24:00,
2013-11-18 23:29:00,31.5,26.4,29.55,NW,309,7.0,16.0,81,0.00,BKN,OVC,0.53,WeatherDisplay:10.37,2013-11-19 04:29:00,
2013-11-18 23:34:00,31.6,25.8,29.55,WNW,303,6.0,14.0,79,0.00,BKN,OVC,0.53,WeatherDisplay:10.37,2013-11-19 04:34:00,
2013-11-18 23:39:00,31.8,25.4,29.55,NW,306,6.0,14.0,77,0.00,BKN,OVC,0.53,WeatherDisplay:10.37,2013-11-19 04:39:00,
2013-11-18 23:44:00,31.9,24.9,29.56,NW,305,5.0,15.0,75,0.00,BKN,OVC,0.53,WeatherDisplay:10.37,2013-11-19 04:44:00,
2013-11-18 23:49:00,32.1,23.8,29.56,NW,305,9.0,15.0,71,0.00,BKN,OVC,0.53,WeatherDisplay:10.37,2013-11-19 04:49:00,
2013-11-18 23:54:00,32.3,23.6,29.57,NW,313,6.0,12.0,70,0.00,BKN,OVC,0.53,WeatherDisplay:10.37,2013-11-19 04:54:00,
2013-11-18 23:59:00,32.4,23.7,29.57,NW,313,3.0,12.0,70,0.00,RA,OVC,0.00,WeatherDisplay:10.37,2013-11-19 04:59:00,